Time;durP1;ratioP1;P1;durP2;ratioP2;P2;SDS_P1;SDS_P2;PMS_P1;PMS_P2;Temp;Humidity;BMP_temperature;BMP_pressure;BME280_temperature;BME280_humidity;BME280_pressure;Samples;Min_cycle;Max_cycle;Signal;HPM_P1;HPM_P2
2023/09/18 00:02:17;;;;;;;15.07;14.47;;;22.20;99.90;;;;;;4974310;28;22409;-80
2023/09/18 00:04:46;;;;;;;14.53;14.03;;;22.10;99.90;;;;;;4972737;28;20447;-80
2023/09/18 00:07:14;;;;;;;14.23;13.80;;;22.00;99.90;;;;;;4974944;28;20474;-78
2023/09/18 00:09:42;;;;;;;14.63;14.03;;;22.10;99.90;;;;;;4975075;28;20489;-79
2023/09/18 00:12:10;;;;;;;14.00;13.50;;;22.10;99.90;;;;;;4972239;28;20470;-78
2023/09/18 00:14:41;;;;;;;14.20;13.80;;;22.10;99.90;;;;;;4973835;28;20487;-79
2023/09/18 00:17:09;;;;;;;14.57;14.03;;;22.10;99.90;;;;;;4973198;28;20467;-79
2023/09/18 00:19:37;;;;;;;14.30;13.70;;;22.00;99.90;;;;;;4973538;28;20551;-78
2023/09/18 00:22:06;;;;;;;14.23;13.63;;;22.00;99.90;;;;;;4972406;28;20527;-80
2023/09/18 00:24:34;;;;;;;14.40;13.80;;;22.00;99.90;;;;;;4970721;28;20455;-78
2023/09/18 00:27:02;;;;;;;14.57;14.07;;;21.90;99.90;;;;;;4973824;28;20459;-80
2023/09/18 00:29:30;;;;;;;14.37;13.87;;;21.90;99.90;;;;;;4975221;28;20511;-79
2023/09/18 00:32:00;;;;;;;15.60;14.90;;;21.90;99.90;;;;;;4974026;28;20475;-78
2023/09/18 00:34:31;;;;;;;14.30;13.80;;;21.90;99.90;;;;;;4977751;28;20493;-79
2023/09/18 00:36:59;;;;;;;14.00;13.50;;;21.90;99.90;;;;;;4979651;28;20994;-79
2023/09/18 00:39:28;;;;;;;14.80;14.20;;;21.80;99.90;;;;;;4977049;28;20871;-79
2023/09/18 00:41:56;;;;;;;14.10;13.60;;;21.80;99.90;;;;;;4975709;28;20457;-78
2023/09/18 00:44:26;;;;;;;13.47;13.07;;;21.80;99.90;;;;;;4977488;28;20460;-80
2023/09/18 00:46:55;;;;;;;14.50;13.90;;;21.90;99.90;;;;;;4979109;28;20807;-80
2023/09/18 00:49:25;;;;;;;14.60;14.00;;;21.90;99.90;;;;;;4976800;28;20475;-79
2023/09/18 00:51:55;;;;;;;14.97;13.83;;;21.90;99.90;;;;;;4974784;28;20459;-79
2023/09/18 00:54:23;;;;;;;14.20;13.70;;;21.90;99.90;;;;;;4974615;28;20486;-76
2023/09/18 00:56:54;;;;;;;14.20;13.60;;;21.90;99.90;;;;;;4974163;28;21221;-78
2023/09/18 00:59:23;;;;;;;15.17;14.30;;;21.90;99.90;;;;;;4974610;28;20562;-78
2023/09/18 01:01:51;;;;;;;14.50;13.90;;;21.90;99.90;;;;;;4972697;28;20571;-79
2023/09/18 01:04:20;;;;;;;14.20;13.60;;;21.90;99.90;;;;;;4972646;28;21081;-78
2023/09/18 01:06:49;;;;;;;14.90;14.40;;;21.90;99.90;;;;;;4973902;28;20471;-80
2023/09/18 01:09:19;;;;;;;14.27;13.57;;;21.90;99.90;;;;;;4973118;28;21131;-79
2023/09/18 01:11:54;;;;;;;14.40;13.83;;;22.00;99.90;;;;;;4970333;28;20459;-79
2023/09/18 01:14:28;;;;;;;14.87;14.27;;;21.90;99.90;;;;;;4969890;28;20474;-79
2023/09/18 01:16:59;;;;;;;14.10;13.63;;;22.00;99.90;;;;;;4973254;28;20471;-79
2023/09/18 01:19:38;;;;;;;14.70;13.80;;;22.00;99.90;;;;;;4971020;28;20483;-79
2023/09/18 01:22:09;;;;;;;14.70;14.13;;;22.00;99.90;;;;;;4971041;28;20466;-80
2023/09/18 01:24:39;;;;;;;14.17;13.77;;;22.10;99.90;;;;;;4974076;28;20456;-79
2023/09/18 01:27:09;;;;;;;14.30;13.70;;;22.20;99.90;;;;;;4972644;28;20569;-78
2023/09/18 01:29:38;;;;;;;14.57;14.00;;;22.20;99.90;;;;;;4985979;28;20489;-78
2023/09/18 01:32:06;;;;;;;14.40;13.90;;;22.30;99.90;;;;;;4970702;28;20972;-79
2023/09/18 01:34:36;;;;;;;15.23;14.63;;;22.30;99.90;;;;;;4970566;28;21017;-79
2023/09/18 01:37:07;;;;;;;14.43;13.93;;;22.30;99.90;;;;;;4972726;28;20474;-79
2023/09/18 01:39:36;;;;;;;14.83;14.23;;;22.40;99.90;;;;;;4970903;28;21188;-79
2023/09/18 01:42:09;;;;;;;14.67;14.07;;;22.40;99.90;;;;;;4972005;28;20460;-80
2023/09/18 01:44:38;;;;;;;14.77;14.20;;;22.40;99.90;;;;;;4972527;28;20462;-81
2023/09/18 01:47:09;;;;;;;14.23;13.63;;;22.40;99.90;;;;;;4970189;28;20463;-79
2023/09/18 01:49:40;;;;;;;15.13;14.47;;;22.50;99.90;;;;;;4973986;28;20475;-76
2023/09/18 01:52:10;;;;;;;14.67;14.07;;;22.40;99.90;;;;;;4969705;28;20455;-80
2023/09/18 01:54:38;;;;;;;14.90;14.27;;;22.40;99.90;;;;;;4987034;28;20829;-81
2023/09/18 01:57:08;;;;;;;15.10;14.40;;;22.30;99.90;;;;;;4971502;28;20516;-80
2023/09/18 01:59:36;;;;;;;14.87;14.03;;;22.20;99.90;;;;;;4973369;28;21025;-80
2023/09/18 02:02:09;;;;;;;15.27;14.17;;;22.20;99.90;;;;;;4966547;28;20455;-81
2023/09/18 02:04:40;;;;;;;15.67;14.60;;;22.20;1.00;;;;;;4974640;28;20473;-82
2023/09/18 02:07:28;;;;;;;14.63;13.77;;;22.10;1.00;;;;;;4972323;28;22659;-81
2023/09/18 02:09:57;;;;;;;15.30;14.20;;;22.10;1.00;;;;;;4976319;28;20491;-81
2023/09/18 02:12:26;;;;;;;15.00;14.10;;;22.10;1.00;;;;;;4975239;28;20452;-79
2023/09/18 02:14:57;;;;;;;14.93;13.87;;;22.10;1.00;;;;;;4970119;28;20467;-81
2023/09/18 02:17:25;;;;;;;14.40;13.53;;;22.20;1.00;;;;;;4969900;28;20456;-79
2023/09/18 02:19:53;;;;;;;14.33;13.57;;;22.10;99.90;;;;;;4976466;28;20482;-79
2023/09/18 02:22:21;;;;;;;15.00;14.13;;;22.10;1.00;;;;;;4978030;28;20991;-79
2023/09/18 02:24:50;;;;;;;14.50;13.60;;;22.10;1.00;;;;;;4972075;28;20460;-78
2023/09/18 02:27:18;;;;;;;14.97;14.20;;;22.00;1.00;;;;;;4969300;28;20475;-80
2023/09/18 02:29:49;;;;;;;15.13;13.90;;;22.00;1.00;;;;;;4970755;28;20479;-77
2023/09/18 02:32:18;;;;;;;17.83;14.90;;;22.00;99.90;;;;;;4974684;28;20450;-78
2023/09/18 02:34:47;;;;;;;15.10;14.00;;;22.20;99.90;;;;;;4972612;28;20455;-80
2023/09/18 02:37:15;;;;;;;15.07;14.07;;;22.20;99.90;;;;;;4974092;28;20565;-80
2023/09/18 02:39:43;;;;;;;15.20;14.20;;;22.30;99.90;;;;;;4979253;28;20483;-79
2023/09/18 02:42:12;;;;;;;15.70;14.60;;;22.20;99.90;;;;;;4975773;28;20470;-79
2023/09/18 02:44:40;;;;;;;15.80;14.80;;;22.20;99.90;;;;;;4974672;28;20458;-79
2023/09/18 02:47:09;;;;;;;15.77;14.87;;;22.10;99.90;;;;;;4973376;28;20465;-79
2023/09/18 02:49:37;;;;;;;15.30;14.40;;;22.10;99.90;;;;;;4976351;28;21071;-80
2023/09/18 02:52:06;;;;;;;15.33;14.60;;;22.00;1.00;;;;;;4972749;28;20498;-78
2023/09/18 02:54:34;;;;;;;15.00;14.23;;;21.90;1.00;;;;;;4971986;28;20467;-78
2023/09/18 02:57:02;;;;;;;15.40;14.50;;;21.90;1.00;;;;;;4972382;28;20515;-78
2023/09/18 02:59:31;;;;;;;16.40;15.50;;;21.90;1.00;;;;;;4974427;28;20487;-79
2023/09/18 03:01:59;;;;;;;14.73;13.90;;;21.80;99.90;;;;;;4975958;28;20960;-78
2023/09/18 03:04:30;;;;;;;14.97;14.20;;;21.90;1.00;;;;;;4972388;28;20456;-79
2023/09/18 03:06:58;;;;;;;15.47;14.50;;;21.80;1.00;;;;;;4973131;28;20454;-79
2023/09/18 03:09:26;;;;;;;15.30;14.67;;;21.80;1.00;;;;;;4968812;28;20502;-77
2023/09/18 03:11:54;;;;;;;15.83;14.93;;;21.70;1.00;;;;;;4971079;28;20469;-79
2023/09/18 03:14:22;;;;;;;15.40;14.60;;;21.70;1.00;;;;;;4967945;28;20454;-78
2023/09/18 03:16:51;;;;;;;15.83;14.97;;;21.60;1.00;;;;;;4970140;28;20540;-79
2023/09/18 03:19:19;;;;;;;15.93;15.03;;;21.50;1.00;;;;;;4969905;28;21041;-78
2023/09/18 03:21:48;;;;;;;15.87;15.13;;;21.50;1.00;;;;;;4970430;28;20462;-79
2023/09/18 03:24:16;;;;;;;15.60;14.90;;;21.60;1.00;;;;;;4968801;28;20472;-78
2023/09/18 03:26:44;;;;;;;15.30;14.57;;;21.60;1.00;;;;;;4971198;28;20456;-77
2023/09/18 03:29:12;;;;;;;15.20;14.40;;;21.60;1.00;;;;;;4973379;28;20479;-78
2023/09/18 03:31:41;;;;;;;15.40;14.70;;;21.60;1.00;;;;;;4972657;28;21057;-79
2023/09/18 03:34:09;;;;;;;15.43;14.53;;;21.60;1.00;;;;;;4970623;28;20456;-79
2023/09/18 03:36:39;;;;;;;16.10;14.67;;;21.60;1.00;;;;;;4974885;28;20512;-79
2023/09/18 03:39:09;;;;;;;15.97;14.90;;;21.60;1.00;;;;;;4974111;28;20842;-78
2023/09/18 03:41:37;;;;;;;15.80;15.10;;;21.60;1.00;;;;;;4968196;28;20463;-80
2023/09/18 03:44:06;;;;;;;16.00;15.10;;;21.60;1.00;;;;;;4967798;28;20495;-78
2023/09/18 03:46:34;;;;;;;15.93;15.07;;;21.50;1.00;;;;;;4969766;28;20454;-79
2023/09/18 03:49:03;;;;;;;16.07;14.93;;;21.50;1.00;;;;;;4970151;28;20497;-78
2023/09/18 03:51:31;;;;;;;16.23;15.23;;;21.60;1.00;;;;;;4971507;28;20460;-78
2023/09/18 03:53:59;;;;;;;16.20;15.00;;;21.70;1.00;;;;;;4965596;28;20463;-78
2023/09/18 03:56:28;;;;;;;15.67;14.70;;;21.70;1.00;;;;;;4971137;28;20854;-78
2023/09/18 03:58:58;;;;;;;15.63;14.80;;;21.80;1.00;;;;;;4969678;28;20478;-79
2023/09/18 04:01:26;;;;;;;16.47;15.37;;;21.80;1.00;;;;;;4961459;28;20482;-78
2023/09/18 04:03:54;;;;;;;15.20;14.47;;;21.80;1.00;;;;;;4972644;28;20518;-79
2023/09/18 04:06:24;;;;;;;15.33;14.43;;;21.80;1.00;;;;;;4970533;28;20480;-78
2023/09/18 04:08:52;;;;;;;15.40;14.50;;;21.80;1.00;;;;;;4965584;28;20645;-78
2023/09/18 04:11:26;;;;;;;16.63;15.53;;;21.80;1.00;;;;;;4971442;28;20462;-79
2023/09/18 04:13:55;;;;;;;16.13;15.07;;;21.70;1.00;;;;;;4973835;28;20466;-78
2023/09/18 04:16:23;;;;;;;16.47;15.67;;;21.70;1.00;;;;;;4971793;28;20538;-79
2023/09/18 04:18:52;;;;;;;16.50;15.70;;;21.70;1.00;;;;;;4972813;28;20510;-79
2023/09/18 04:21:21;;;;;;;16.60;15.70;;;21.60;1.00;;;;;;4972537;28;20475;-77
2023/09/18 04:23:55;;;;;;;16.10;15.27;;;21.60;1.00;;;;;;4971754;28;20459;-78
2023/09/18 04:26:23;;;;;;;16.43;15.40;;;21.60;1.00;;;;;;4975827;28;20460;-78
2023/09/18 04:28:51;;;;;;;15.97;15.07;;;21.60;1.00;;;;;;4974293;28;20498;-79
2023/09/18 04:31:25;;;;;;;16.17;15.33;;;21.60;1.00;;;;;;4973417;28;20510;-77
2023/09/18 04:33:53;;;;;;;15.93;15.13;;;21.60;1.00;;;;;;4969107;28;20569;-73
2023/09/18 04:36:21;;;;;;;16.40;15.40;;;21.60;1.00;;;;;;4968515;28;20479;-74
2023/09/18 04:38:50;;;;;;;16.77;15.77;;;21.50;1.00;;;;;;4973540;28;20585;-74
2023/09/18 04:41:18;;;;;;;16.33;15.43;;;21.60;1.00;;;;;;4972022;28;21278;-74
2023/09/18 04:43:46;;;;;;;16.23;15.20;;;21.60;1.00;;;;;;4973445;28;20471;-73
2023/09/18 04:46:14;;;;;;;15.83;15.13;;;21.70;1.00;;;;;;4974178;28;20459;-72
2023/09/18 04:48:44;;;;;;;16.07;15.07;;;21.70;1.00;;;;;;4972466;28;20461;-72
2023/09/18 04:51:12;;;;;;;16.33;15.53;;;21.70;1.00;;;;;;4971805;28;20463;-74
2023/09/18 04:53:40;;;;;;;16.10;15.40;;;21.70;1.00;;;;;;4972700;28;20451;-73
2023/09/18 04:56:09;;;;;;;15.73;15.13;;;21.80;1.00;;;;;;4969604;28;20593;-73
2023/09/18 04:58:39;;;;;;;16.93;16.23;;;21.70;1.00;;;;;;4975118;28;20443;-80
2023/09/18 05:01:07;;;;;;;17.20;16.17;;;21.60;1.00;;;;;;4968466;28;20458;-80
2023/09/18 05:03:36;;;;;;;15.93;15.17;;;21.60;1.00;;;;;;4970162;28;20944;-78
2023/09/18 05:06:08;;;;;;;16.43;15.73;;;21.60;1.00;;;;;;4963881;28;20468;-78
2023/09/18 05:08:37;;;;;;;15.90;15.30;;;21.60;1.00;;;;;;4975019;28;20453;-79
2023/09/18 05:11:05;;;;;;;16.30;15.70;;;21.50;1.00;;;;;;4967920;28;20469;-78
2023/09/18 05:13:33;;;;;;;15.97;15.30;;;21.40;1.00;;;;;;4977577;28;20464;-79
2023/09/18 05:16:03;;;;;;;16.93;16.07;;;21.40;1.00;;;;;;4972131;28;20462;-78
2023/09/18 05:18:31;;;;;;;16.70;15.80;;;21.40;1.00;;;;;;4965727;28;20475;-79
2023/09/18 05:20:59;;;;;;;16.30;15.60;;;21.50;1.00;;;;;;4968924;28;20475;-79
2023/09/18 05:23:29;;;;;;;16.63;15.67;;;21.50;1.00;;;;;;4971791;28;20463;-77
2023/09/18 05:25:57;;;;;;;15.80;15.10;;;21.50;1.00;;;;;;4967276;28;20506;-79
2023/09/18 05:28:25;;;;;;;16.10;15.40;;;21.50;1.00;;;;;;4966016;28;20554;-78
2023/09/18 05:30:53;;;;;;;16.30;15.47;;;21.50;1.00;;;;;;4972691;28;20484;-78
2023/09/18 05:33:22;;;;;;;16.37;15.50;;;21.50;1.00;;;;;;4977231;28;20491;-79
2023/09/18 05:35:51;;;;;;;15.70;15.13;;;21.50;1.00;;;;;;4976411;28;20483;-79
2023/09/18 05:38:19;;;;;;;15.57;14.90;;;21.50;1.00;;;;;;4977515;28;20492;-80
2023/09/18 05:40:48;;;;;;;15.80;15.10;;;21.50;1.00;;;;;;4976881;28;20554;-79
2023/09/18 05:43:17;;;;;;;16.17;15.50;;;21.40;1.00;;;;;;4968450;28;20465;-78
2023/09/18 05:45:46;;;;;;;16.10;15.23;;;21.40;1.00;;;;;;4974285;28;20834;-80
2023/09/18 05:48:14;;;;;;;16.17;15.50;;;21.50;1.00;;;;;;4972899;28;20463;-79
2023/09/18 05:50:43;;;;;;;15.77;15.17;;;21.40;1.00;;;;;;4975893;28;20487;-79
2023/09/18 05:53:11;;;;;;;16.33;15.60;;;21.40;1.00;;;;;;4991368;28;20856;-79
2023/09/18 05:55:39;;;;;;;16.40;15.60;;;21.40;1.00;;;;;;4971118;28;20457;-79
2023/09/18 05:58:09;;;;;;;16.60;15.40;;;21.50;1.00;;;;;;4973384;28;20479;-79
2023/09/18 06:00:37;;;;;;;15.03;14.43;;;21.50;1.00;;;;;;4970444;28;20519;-78
2023/09/18 06:03:06;;;;;;;16.50;15.60;;;21.50;1.00;;;;;;4990748;28;20541;-78
2023/09/18 06:05:35;;;;;;;15.60;14.90;;;21.50;1.00;;;;;;4972550;28;20571;-77
2023/09/18 06:08:05;;;;;;;15.50;15.00;;;21.40;1.00;;;;;;4989055;28;20490;-78
2023/09/18 06:10:36;;;;;;;15.57;14.90;;;21.40;1.00;;;;;;4970693;28;20479;-78
2023/09/18 06:13:06;;;;;;;15.93;15.10;;;21.50;9.50;;;;;;4974539;28;20446;-78
2023/09/18 06:15:36;;;;;;;16.00;15.30;;;21.40;70.60;;;;;;4973459;28;20480;-78
2023/09/18 06:18:06;;;;;;;16.07;15.07;;;21.40;96.80;;;;;;4972464;28;20567;-77
2023/09/18 06:20:34;;;;;;;16.57;15.50;;;21.30;92.60;;;;;;4975468;28;20504;-79
2023/09/18 06:23:04;;;;;;;15.97;15.17;;;21.30;99.90;;;;;;4976221;28;20452;-79
2023/09/18 06:25:32;;;;;;;15.17;14.60;;;21.40;99.90;;;;;;4973737;28;20514;-79
2023/09/18 06:28:03;;;;;;;15.83;15.03;;;21.40;99.90;;;;;;4990065;28;20459;-80
2023/09/18 06:30:32;;;;;;;15.67;15.00;;;21.40;99.90;;;;;;4975296;28;20518;-78
2023/09/18 06:33:04;;;;;;;15.50;14.90;;;21.40;99.90;;;;;;4976000;28;20460;-79
2023/09/18 06:35:34;;;;;;;16.23;15.50;;;21.40;99.90;;;;;;4967834;28;20953;-80
2023/09/18 06:38:02;;;;;;;16.80;15.80;;;21.50;99.90;;;;;;4975540;28;20477;-79
2023/09/18 06:40:31;;;;;;;15.77;15.07;;;21.50;99.90;;;;;;4973822;28;20500;-78
2023/09/18 06:43:03;;;;;;;16.10;15.30;;;21.50;99.90;;;;;;4973806;28;20499;-79
2023/09/18 06:45:33;;;;;;;15.70;15.00;;;21.50;99.90;;;;;;4980816;28;20461;-79
2023/09/18 06:48:05;;;;;;;16.43;15.53;;;21.50;99.90;;;;;;4974005;28;20471;-79
2023/09/18 06:50:34;;;;;;;15.27;14.63;;;21.40;64.00;;;;;;4990917;28;20525;-79
2023/09/18 06:53:04;;;;;;;16.10;15.10;;;21.40;54.70;;;;;;4993104;28;20470;-80
2023/09/18 06:55:32;;;;;;;16.13;15.20;;;21.50;47.60;;;;;;4968743;28;20987;-77
2023/09/18 06:58:01;;;;;;;15.30;14.90;;;21.50;39.40;;;;;;4971150;28;20493;-78
2023/09/18 07:00:30;;;;;;;15.83;15.20;;;21.50;75.30;;;;;;4970109;28;20479;-79
2023/09/18 07:02:58;;;;;;;16.03;15.33;;;21.60;2.00;;;;;;4961636;28;21058;-79
2023/09/18 07:05:28;;;;;;;15.80;15.20;;;21.60;9.60;;;;;;4969536;28;20463;-79
2023/09/18 07:07:57;;;;;;;16.00;15.30;;;21.40;1.00;;;;;;4973962;28;20460;-78
2023/09/18 07:10:25;;;;;;;15.80;15.10;;;21.40;1.00;;;;;;4976979;28;20531;-80
2023/09/18 07:12:53;;;;;;;15.97;15.17;;;21.50;1.00;;;;;;4977948;28;20456;-79
2023/09/18 07:15:21;;;;;;;15.80;15.10;;;21.50;1.00;;;;;;4976240;28;20462;-79
2023/09/18 07:17:51;;;;;;;15.40;14.90;;;21.60;1.00;;;;;;4974446;28;20479;-78
2023/09/18 07:20:19;;;;;;;15.80;15.20;;;21.70;1.00;;;;;;4973622;28;20638;-78
2023/09/18 07:22:50;;;;;;;16.33;15.63;;;21.70;1.00;;;;;;4972666;28;20459;-79
2023/09/18 07:25:18;;;;;;;16.43;15.63;;;21.60;1.00;;;;;;4977810;28;20458;-79
2023/09/18 07:27:47;;;;;;;15.70;15.20;;;21.60;1.00;;;;;;4977433;28;20459;-80
2023/09/18 07:30:17;;;;;;;15.80;15.00;;;21.60;1.00;;;;;;4979936;28;20498;-78
2023/09/18 07:32:46;;;;;;;15.40;14.80;;;21.70;1.00;;;;;;4975054;28;20455;-79
2023/09/18 07:35:15;;;;;;;15.37;14.87;;;21.80;1.00;;;;;;4978554;28;21018;-78
2023/09/18 07:37:46;;;;;;;16.20;15.50;;;21.80;1.00;;;;;;4974995;28;20952;-78
2023/09/18 07:40:16;;;;;;;15.93;15.30;;;21.80;1.00;;;;;;4975975;28;20488;-79
2023/09/18 07:42:45;;;;;;;15.97;15.37;;;21.80;1.00;;;;;;4978163;28;20483;-79
2023/09/18 07:45:14;;;;;;;16.13;15.43;;;21.70;1.00;;;;;;4976674;28;20455;-79
2023/09/18 07:47:42;;;;;;;15.93;15.23;;;21.60;1.00;;;;;;4978537;28;20476;-80
2023/09/18 07:50:11;;;;;;;15.10;14.60;;;21.60;1.00;;;;;;4976809;28;20467;-79
2023/09/18 07:52:39;;;;;;;16.10;15.60;;;21.60;1.00;;;;;;4979572;28;20454;-78
2023/09/18 07:55:09;;;;;;;16.20;15.30;;;21.70;1.00;;;;;;4980568;28;20458;-78
2023/09/18 07:57:40;;;;;;;15.60;15.10;;;21.70;1.00;;;;;;4961631;28;20896;-80
2023/09/18 08:00:12;;;;;;;15.83;15.23;;;21.70;1.00;;;;;;4977553;28;21012;-79
2023/09/18 08:02:41;;;;;;;15.37;14.77;;;21.80;1.00;;;;;;4977989;28;20463;-77
2023/09/18 08:05:11;;;;;;;15.50;14.90;;;21.70;1.00;;;;;;4973627;28;20455;-78
2023/09/18 08:07:40;;;;;;;15.47;14.87;;;21.70;1.00;;;;;;4979605;28;20885;-77
2023/09/18 08:10:12;;;;;;;14.87;14.43;;;21.70;1.00;;;;;;4976165;28;20519;-78
2023/09/18 08:12:42;;;;;;;15.50;14.97;;;21.70;1.00;;;;;;4977466;28;20499;-78
2023/09/18 08:15:11;;;;;;;15.10;14.70;;;21.70;1.00;;;;;;4977326;28;20471;-78
2023/09/18 08:17:40;;;;;;;15.57;15.07;;;21.50;1.00;;;;;;4994149;28;20578;-78
2023/09/18 08:20:13;;;;;;;14.90;14.33;;;21.50;1.00;;;;;;4980155;28;20512;-77
2023/09/18 08:22:41;;;;;;;15.50;14.90;;;21.50;1.00;;;;;;4979726;28;20816;-77
2023/09/18 08:25:10;;;;;;;15.27;14.80;;;21.40;1.00;;;;;;4978280;28;20503;-78
2023/09/18 08:27:41;;;;;;;15.43;15.00;;;21.30;1.00;;;;;;4976523;28;20474;-77
2023/09/18 08:30:12;;;;;;;15.93;15.30;;;21.20;33.30;;;;;;4981423;28;20479;-78
2023/09/18 08:32:40;;;;;;;16.60;15.80;;;21.00;99.90;;;;;;4976693;28;20464;-78
2023/09/18 08:35:10;;;;;;;15.60;15.00;;;21.00;99.90;;;;;;4975133;28;20550;-78
2023/09/18 08:37:38;;;;;;;16.30;15.60;;;20.90;99.90;;;;;;4979274;28;20474;-77
2023/09/18 08:40:10;;;;;;;16.13;15.63;;;21.00;1.00;;;;;;4980260;28;20505;-78
2023/09/18 08:42:45;;;;;;;15.77;15.13;;;20.90;1.00;;;;;;4977294;28;21065;-77
2023/09/18 08:45:20;;;;;;;16.00;15.40;;;20.70;1.00;;;;;;4979652;28;20487;-78
2023/09/18 08:47:49;;;;;;;16.73;15.77;;;20.70;1.00;;;;;;4976711;28;20479;-77
2023/09/18 08:50:18;;;;;;;16.07;15.57;;;20.70;99.90;;;;;;4976343;28;20478;-78
2023/09/18 08:52:47;;;;;;;16.00;15.30;;;20.80;12.60;;;;;;4990010;28;20519;-78
2023/09/18 08:55:17;;;;;;;15.80;15.20;;;20.70;99.90;;;;;;4978697;28;20459;-77
2023/09/18 08:57:47;;;;;;;16.33;15.63;;;20.80;99.90;;;;;;4975863;28;20452;-78
2023/09/18 09:00:17;;;;;;;16.57;15.50;;;20.80;99.90;;;;;;4976600;28;21220;-77
2023/09/18 09:02:48;;;;;;;15.70;15.20;;;20.90;99.90;;;;;;4993812;28;20475;-78
2023/09/18 09:05:17;;;;;;;16.13;15.57;;;20.80;99.90;;;;;;4976229;28;21067;-78
2023/09/18 09:07:45;;;;;;;15.90;15.40;;;20.70;99.90;;;;;;4977697;28;20463;-78
2023/09/18 09:10:14;;;;;;;16.00;15.40;;;20.60;1.00;;;;;;4994106;28;20490;-79
2023/09/18 09:12:49;;;;;;;15.33;14.83;;;20.70;1.00;;;;;;4979580;28;20468;-77
2023/09/18 09:15:19;;;;;;;16.33;15.60;;;20.70;1.00;;;;;;4977566;28;20455;-77
2023/09/18 09:17:48;;;;;;;16.13;15.27;;;20.70;1.00;;;;;;4978306;28;21117;-77
2023/09/18 09:20:18;;;;;;;16.37;15.47;;;20.80;63.50;;;;;;4982119;28;20537;-79
2023/09/18 09:22:47;;;;;;;15.80;15.40;;;20.80;1.00;;;;;;4978678;28;20534;-77
2023/09/18 09:25:26;;;;;;;16.73;15.93;;;20.80;1.00;;;;;;4980438;28;20436;-76
2023/09/18 09:27:55;;;;;;;15.90;15.30;;;20.80;50.20;;;;;;4978416;28;20458;-78
2023/09/18 09:30:27;;;;;;;16.67;15.97;;;20.80;99.90;;;;;;4979804;28;20478;-78
2023/09/18 09:32:57;;;;;;;15.97;15.47;;;20.80;30.50;;;;;;4978963;28;20517;-76
2023/09/18 09:35:28;;;;;;;16.23;15.63;;;20.90;1.30;;;;;;4980095;28;20450;-76
2023/09/18 09:38:00;;;;;;;17.30;16.40;;;20.80;99.90;;;;;;4976266;28;20538;-78
2023/09/18 09:40:30;;;;;;;16.30;15.70;;;20.60;1.00;;;;;;4975845;28;20494;-77
2023/09/18 09:43:04;;;;;;;15.83;15.33;;;20.60;68.20;;;;;;4979147;28;20462;-76
2023/09/18 09:45:35;;;;;;;16.27;15.67;;;20.50;99.90;;;;;;4976156;28;20460;-77
2023/09/18 09:48:06;;;;;;;16.20;15.37;;;20.60;99.90;;;;;;4980980;28;20455;-77
2023/09/18 09:50:46;;;;;;;16.40;15.73;;;20.60;1.00;;;;;;4977855;28;20480;-79
2023/09/18 09:53:18;;;;;;;16.63;15.73;;;20.60;1.00;;;;;;4975624;28;20550;-78
2023/09/18 09:55:54;;;;;;;16.50;15.80;;;20.50;1.00;;;;;;4979255;28;20470;-77
2023/09/18 09:58:30;;;;;;;15.80;15.20;;;20.50;1.00;;;;;;4976789;28;20984;-77
2023/09/18 10:01:08;;;;;;;16.97;16.27;;;20.50;1.00;;;;;;4977807;28;21005;-78
2023/09/18 10:03:39;;;;;;;15.80;15.30;;;20.50;91.10;;;;;;4975725;28;20465;-77
2023/09/18 10:06:10;;;;;;;16.70;15.90;;;20.40;1.00;;;;;;4980560;28;20497;-77
2023/09/18 10:08:40;;;;;;;15.90;15.20;;;20.40;99.90;;;;;;4978778;28;20505;-77
2023/09/18 10:11:10;;;;;;;15.63;15.10;;;20.40;1.00;;;;;;4981532;28;20474;-77
2023/09/18 10:13:46;;;;;;;15.93;15.37;;;20.20;99.90;;;;;;4975339;28;20462;-77
2023/09/18 10:16:20;;;;;;;15.87;15.27;;;20.40;99.90;;;;;;4978764;28;20865;-78
2023/09/18 10:19:00;;;;;;;16.00;15.40;;;20.40;1.00;;;;;;4977000;28;20455;-78
2023/09/18 10:21:37;;;;;;;15.50;15.00;;;20.50;99.90;;;;;;4979788;28;20585;-77
2023/09/18 10:24:19;;;;;;;16.10;15.50;;;20.50;99.90;;;;;;5006274;28;20468;-77
2023/09/18 10:26:56;;;;;;;15.80;15.20;;;20.50;99.90;;;;;;4973956;28;20458;-75
2023/09/18 10:29:25;;;;;;;16.50;15.70;;;20.50;99.90;;;;;;4974289;28;20511;-77
2023/09/18 10:31:55;;;;;;;16.13;15.53;;;20.60;99.90;;;;;;4992822;28;20468;-77
2023/09/18 10:34:25;;;;;;;16.03;15.20;;;20.50;99.90;;;;;;4976832;28;20452;-77
2023/09/18 10:36:55;;;;;;;16.03;15.40;;;20.40;1.00;;;;;;4975707;28;20533;-78
2023/09/18 10:39:26;;;;;;;16.07;15.47;;;20.40;99.90;;;;;;4978060;28;20877;-78
2023/09/18 10:41:57;;;;;;;15.87;15.07;;;20.40;99.90;;;;;;4973428;28;20464;-77
2023/09/18 10:44:25;;;;;;;15.90;15.30;;;20.50;70.30;;;;;;4972904;28;20455;-77
2023/09/18 10:46:56;;;;;;;15.80;15.10;;;20.50;61.80;;;;;;4980366;28;20458;-78
2023/09/18 10:49:25;;;;;;;15.53;15.03;;;20.50;1.00;;;;;;4989723;28;20489;-78
2023/09/18 10:51:55;;;;;;;15.50;15.00;;;20.40;99.90;;;;;;4973864;28;20843;-78
2023/09/18 10:54:28;;;;;;;16.30;15.50;;;20.40;48.30;;;;;;4979092;28;20462;-77
2023/09/18 10:56:57;;;;;;;16.87;15.90;;;20.40;99.90;;;;;;4975489;28;20456;-77
2023/09/18 10:59:26;;;;;;;16.40;15.70;;;20.50;99.90;;;;;;4974471;28;20477;-78
2023/09/18 11:01:55;;;;;;;15.30;14.80;;;20.50;99.90;;;;;;4978102;28;20489;-76
2023/09/18 11:04:24;;;;;;;16.07;15.37;;;20.60;99.90;;;;;;4978112;28;20452;-78
2023/09/18 11:07:04;;;;;;;16.30;15.57;;;20.60;78.90;;;;;;4976099;28;20795;-78
2023/09/18 11:09:41;;;;;;;15.97;15.23;;;20.50;99.90;;;;;;4973056;28;20507;-77
2023/09/18 11:12:11;;;;;;;15.90;15.30;;;20.60;99.90;;;;;;4975854;28;20482;-77
2023/09/18 11:14:48;;;;;;;16.50;15.70;;;20.60;1.00;;;;;;4975958;28;20451;-77
2023/09/18 11:17:33;;;;;;;15.93;15.40;;;20.60;99.90;;;;;;4976808;28;20451;-78
2023/09/18 11:20:08;;;;;;;16.00;15.40;;;20.60;99.90;;;;;;4987934;28;20578;-78
2023/09/18 11:22:38;;;;;;;15.90;15.30;;;20.40;99.90;;;;;;4977085;28;20469;-80
2023/09/18 11:25:47;;;;;;;16.03;15.40;;;20.40;1.00;;;;;;4978564;28;20571;-79
2023/09/18 11:28:17;;;;;;;15.97;15.40;;;20.50;99.90;;;;;;4973779;28;20562;-79
2023/09/18 11:30:51;;;;;;;15.37;14.87;;;20.50;99.90;;;;;;4973664;28;20464;-78
2023/09/18 11:33:36;;;;;;;16.03;15.30;;;20.50;99.90;;;;;;4980618;28;20554;-79
2023/09/18 11:36:07;;;;;;;16.23;15.47;;;20.60;99.90;;;;;;4983064;28;20469;-80
2023/09/18 11:38:51;;;;;;;15.40;14.90;;;20.60;99.90;;;;;;4980186;28;20474;-77
2023/09/18 11:41:26;;;;;;;15.40;14.90;;;20.60;1.00;;;;;;4981771;28;20780;-78
2023/09/18 11:44:40;;;;;;;15.77;15.20;;;20.60;99.90;;;;;;4980050;28;20989;-79
2023/09/18 11:47:17;;;;;;;16.03;15.53;;;20.70;1.00;;;;;;4980617;28;20446;-78
2023/09/18 11:49:54;;;;;;;15.70;15.20;;;20.70;99.90;;;;;;4978979;28;20971;-80
2023/09/18 11:52:25;;;;;;;15.50;15.00;;;20.70;99.90;;;;;;4998391;28;20462;-79
2023/09/18 11:54:55;;;;;;;15.40;14.80;;;20.60;11.50;;;;;;4979872;28;20470;-79
2023/09/18 11:57:24;;;;;;;15.67;15.17;;;20.60;99.90;;;;;;4980861;28;20450;-78
2023/09/18 11:59:52;;;;;;;15.90;15.30;;;20.70;12.10;;;;;;4977065;28;20487;-78
2023/09/18 12:02:34;;;;;;;15.70;15.20;;;20.70;1.00;;;;;;4979205;28;20490;-77
2023/09/18 12:05:12;;;;;;;15.30;14.90;;;20.70;1.00;;;;;;4975616;28;20501;-80
2023/09/18 12:07:43;;;;;;;15.27;14.80;;;20.70;1.00;;;;;;4977811;28;21184;-77
2023/09/18 12:10:12;;;;;;;15.40;14.90;;;20.70;1.00;;;;;;4981934;28;20559;-80
2023/09/18 12:12:42;;;;;;;16.03;15.43;;;20.70;1.00;;;;;;4981074;28;20465;-78
2023/09/18 12:15:12;;;;;;;16.00;15.43;;;20.70;1.00;;;;;;4978954;28;20458;-78
2023/09/18 12:17:40;;;;;;;15.80;15.20;;;20.80;1.00;;;;;;4976720;28;20562;-77
2023/09/18 12:20:18;;;;;;;15.60;15.07;;;20.70;99.90;;;;;;4978457;28;20474;-78
2023/09/18 12:22:50;;;;;;;15.90;15.20;;;20.60;99.90;;;;;;4979066;28;20449;-81
2023/09/18 12:25:19;;;;;;;15.40;15.00;;;20.60;99.90;;;;;;4975346;28;20457;-79
2023/09/18 12:27:52;;;;;;;15.47;15.07;;;20.70;99.90;;;;;;4974790;28;20542;-79
2023/09/18 12:30:22;;;;;;;15.23;14.73;;;20.70;99.90;;;;;;4978768;28;20483;-79
2023/09/18 12:32:52;;;;;;;15.10;14.70;;;20.70;99.90;;;;;;4979335;28;20510;-78
2023/09/18 12:35:24;;;;;;;15.00;14.60;;;20.80;99.90;;;;;;4976537;28;20506;-79
2023/09/18 12:37:53;;;;;;;15.60;15.10;;;20.80;99.90;;;;;;4981078;28;20452;-77
2023/09/18 12:40:26;;;;;;;15.50;15.10;;;20.90;99.90;;;;;;4972995;28;20483;-77
2023/09/18 12:42:56;;;;;;;15.30;14.90;;;21.00;99.90;;;;;;4975682;28;20547;-80
2023/09/18 12:45:25;;;;;;;15.37;14.90;;;21.10;99.90;;;;;;4975849;28;20459;-79
2023/09/18 12:47:55;;;;;;;15.33;14.83;;;21.10;99.90;;;;;;4994480;28;20738;-80
2023/09/18 12:50:25;;;;;;;15.13;14.73;;;21.20;99.90;;;;;;4976839;28;20487;-78